sensor_id;sensor_type;location;lat;lon;timestamp;P1;durP1;ratioP1;P2;durP2;ratioP2
61487;SDS011;47351;53.326;-6.298;2022-08-26T00:02:22;6.10;;;1.20;;
61487;SDS011;47351;53.326;-6.298;2022-08-26T00:04:53;3.90;;;1.20;;
61487;SDS011;47351;53.326;-6.298;2022-08-26T00:08:02;5.10;;;1.10;;
61487;SDS011;47351;53.326;-6.298;2022-08-26T00:10:36;8.10;;;1.60;;
61487;SDS011;47351;53.326;-6.298;2022-08-26T00:13:24;8.20;;;1.50;;
61487;SDS011;47351;53.326;-6.298;2022-08-26T00:16:02;6.90;;;1.20;;
61487;SDS011;47351;53.326;-6.298;2022-08-26T00:18:52;4.50;;;1.20;;
61487;SDS011;47351;53.326;-6.298;2022-08-26T00:21:30;4.60;;;1.10;;
61487;SDS011;47351;53.326;-6.298;2022-08-26T00:24:04;8.00;;;1.10;;
61487;SDS011;47351;53.326;-6.298;2022-08-26T00:26:33;8.40;;;1.40;;
61487;SDS011;47351;53.326;-6.298;2022-08-26T00:32:01;5.10;;;1.10;;
61487;SDS011;47351;53.326;-6.298;2022-08-26T00:34:31;4.30;;;1.20;;
61487;SDS011;47351;53.326;-6.298;2022-08-26T00:37:14;3.40;;;1.10;;
61487;SDS011;47351;53.326;-6.298;2022-08-26T00:39:43;9.30;;;1.40;;
61487;SDS011;47351;53.326;-6.298;2022-08-26T00:42:12;6.10;;;1.40;;
61487;SDS011;47351;53.326;-6.298;2022-08-26T00:44:51;7.20;;;1.40;;
61487;SDS011;47351;53.326;-6.298;2022-08-26T00:47:21;6.70;;;1.10;;
61487;SDS011;47351;53.326;-6.298;2022-08-26T00:50:02;6.20;;;1.30;;
61487;SDS011;47351;53.326;-6.298;2022-08-26T00:52:52;5.30;;;1.30;;
61487;SDS011;47351;53.326;-6.298;2022-08-26T00:55:28;6.90;;;1.30;;
61487;SDS011;47351;53.326;-6.298;2022-08-26T00:58:25;3.50;;;1.00;;
61487;SDS011;47351;53.326;-6.298;2022-08-26T01:01:01;4.90;;;1.30;;
61487;SDS011;47351;53.326;-6.298;2022-08-26T01:03:37;3.70;;;1.20;;
61487;SDS011;47351;53.326;-6.298;2022-08-26T01:06:28;5.30;;;1.30;;
61487;SDS011;47351;53.326;-6.298;2022-08-26T01:09:18;5.50;;;1.10;;
61487;SDS011;47351;53.326;-6.298;2022-08-26T01:12:08;5.90;;;1.00;;
61487;SDS011;47351;53.326;-6.298;2022-08-26T01:14:57;3.30;;;1.00;;
61487;SDS011;47351;53.326;-6.298;2022-08-26T01:17:50;4.10;;;1.10;;
61487;SDS011;47351;53.326;-6.298;2022-08-26T01:20:26;5.50;;;1.50;;
61487;SDS011;47351;53.326;-6.298;2022-08-26T01:23:15;3.50;;;1.10;;
61487;SDS011;47351;53.326;-6.298;2022-08-26T01:25:51;5.30;;;1.00;;
61487;SDS011;47351;53.326;-6.298;2022-08-26T01:28:45;4.20;;;1.00;;
61487;SDS011;47351;53.326;-6.298;2022-08-26T01:31:42;2.40;;;0.90;;
61487;SDS011;47351;53.326;-6.298;2022-08-26T01:34:27;5.50;;;1.10;;
61487;SDS011;47351;53.326;-6.298;2022-08-26T01:37:12;6.30;;;1.10;;
61487;SDS011;47351;53.326;-6.298;2022-08-26T01:40:11;3.30;;;1.00;;
61487;SDS011;47351;53.326;-6.298;2022-08-26T01:42:55;7.10;;;1.30;;
61487;SDS011;47351;53.326;-6.298;2022-08-26T01:45:50;7.30;;;1.30;;
61487;SDS011;47351;53.326;-6.298;2022-08-26T01:48:57;4.00;;;1.20;;
61487;SDS011;47351;53.326;-6.298;2022-08-26T01:51:35;3.40;;;1.20;;
61487;SDS011;47351;53.326;-6.298;2022-08-26T01:54:14;5.90;;;1.20;;
61487;SDS011;47351;53.326;-6.298;2022-08-26T01:57:04;3.40;;;1.00;;
61487;SDS011;47351;53.326;-6.298;2022-08-26T01:59:47;4.20;;;1.10;;
61487;SDS011;47351;53.326;-6.298;2022-08-26T02:02:40;3.50;;;0.90;;
61487;SDS011;47351;53.326;-6.298;2022-08-26T02:05:41;5.10;;;1.30;;
61487;SDS011;47351;53.326;-6.298;2022-08-26T02:08:29;4.10;;;1.10;;
61487;SDS011;47351;53.326;-6.298;2022-08-26T02:11:20;4.50;;;1.10;;
61487;SDS011;47351;53.326;-6.298;2022-08-26T02:13:58;5.50;;;1.30;;
61487;SDS011;47351;53.326;-6.298;2022-08-26T02:16:39;4.10;;;1.00;;
61487;SDS011;47351;53.326;-6.298;2022-08-26T02:19:15;3.00;;;0.90;;
61487;SDS011;47351;53.326;-6.298;2022-08-26T02:21:49;6.50;;;1.20;;
61487;SDS011;47351;53.326;-6.298;2022-08-26T02:24:46;4.20;;;1.10;;
61487;SDS011;47351;53.326;-6.298;2022-08-26T02:27:23;3.00;;;1.10;;
61487;SDS011;47351;53.326;-6.298;2022-08-26T02:30:23;2.60;;;1.00;;
61487;SDS011;47351;53.326;-6.298;2022-08-26T02:33:03;4.50;;;1.10;;
61487;SDS011;47351;53.326;-6.298;2022-08-26T02:35:52;2.70;;;1.10;;
61487;SDS011;47351;53.326;-6.298;2022-08-26T02:38:42;2.70;;;1.00;;
61487;SDS011;47351;53.326;-6.298;2022-08-26T02:41:44;3.30;;;1.00;;
61487;SDS011;47351;53.326;-6.298;2022-08-26T02:44:24;4.20;;;1.00;;
61487;SDS011;47351;53.326;-6.298;2022-08-26T02:47:08;3.20;;;1.10;;
61487;SDS011;47351;53.326;-6.298;2022-08-26T02:49:56;2.60;;;1.00;;
61487;SDS011;47351;53.326;-6.298;2022-08-26T02:52:29;3.40;;;1.00;;
61487;SDS011;47351;53.326;-6.298;2022-08-26T02:55:21;2.30;;;1.00;;
61487;SDS011;47351;53.326;-6.298;2022-08-26T02:57:59;4.60;;;1.20;;
61487;SDS011;47351;53.326;-6.298;2022-08-26T03:00:46;2.60;;;1.10;;
61487;SDS011;47351;53.326;-6.298;2022-08-26T03:03:47;2.70;;;1.10;;
61487;SDS011;47351;53.326;-6.298;2022-08-26T03:06:31;3.90;;;1.10;;
61487;SDS011;47351;53.326;-6.298;2022-08-26T03:09:23;5.10;;;1.30;;
61487;SDS011;47351;53.326;-6.298;2022-08-26T03:12:02;4.10;;;1.30;;
61487;SDS011;47351;53.326;-6.298;2022-08-26T03:14:52;2.60;;;1.20;;
61487;SDS011;47351;53.326;-6.298;2022-08-26T03:17:50;5.00;;;1.10;;
61487;SDS011;47351;53.326;-6.298;2022-08-26T03:20:34;4.00;;;1.40;;
61487;SDS011;47351;53.326;-6.298;2022-08-26T03:23:23;3.30;;;1.20;;
61487;SDS011;47351;53.326;-6.298;2022-08-26T03:26:05;3.50;;;1.20;;
61487;SDS011;47351;53.326;-6.298;2022-08-26T03:28:56;2.00;;;1.20;;
61487;SDS011;47351;53.326;-6.298;2022-08-26T03:31:55;5.20;;;1.30;;
61487;SDS011;47351;53.326;-6.298;2022-08-26T03:34:45;3.50;;;1.20;;
61487;SDS011;47351;53.326;-6.298;2022-08-26T03:37:34;3.70;;;1.20;;
61487;SDS011;47351;53.326;-6.298;2022-08-26T03:40:45;3.60;;;1.10;;
61487;SDS011;47351;53.326;-6.298;2022-08-26T03:43:34;1.50;;;1.00;;
61487;SDS011;47351;53.326;-6.298;2022-08-26T03:49:14;3.20;;;1.20;;
61487;SDS011;47351;53.326;-6.298;2022-08-26T03:51:49;1.90;;;1.00;;
61487;SDS011;47351;53.326;-6.298;2022-08-26T03:54:38;2.20;;;1.20;;
61487;SDS011;47351;53.326;-6.298;2022-08-26T03:57:26;4.70;;;1.20;;
61487;SDS011;47351;53.326;-6.298;2022-08-26T04:00:06;3.20;;;1.20;;
61487;SDS011;47351;53.326;-6.298;2022-08-26T04:02:48;1.40;;;1.00;;
61487;SDS011;47351;53.326;-6.298;2022-08-26T04:06:00;1.80;;;0.70;;
61487;SDS011;47351;53.326;-6.298;2022-08-26T04:08:46;0.90;;;0.50;;
61487;SDS011;47351;53.326;-6.298;2022-08-26T04:11:58;0.80;;;0.40;;
61487;SDS011;47351;53.326;-6.298;2022-08-26T04:14:27;1.20;;;0.50;;
61487;SDS011;47351;53.326;-6.298;2022-08-26T04:17:27;1.10;;;0.40;;
61487;SDS011;47351;53.326;-6.298;2022-08-26T04:20:36;0.40;;;0.40;;
61487;SDS011;47351;53.326;-6.298;2022-08-26T04:23:08;0.60;;;0.30;;
61487;SDS011;47351;53.326;-6.298;2022-08-26T04:26:00;1.10;;;0.40;;
61487;SDS011;47351;53.326;-6.298;2022-08-26T04:28:51;0.30;;;0.30;;
61487;SDS011;47351;53.326;-6.298;2022-08-26T04:31:53;1.30;;;0.50;;
61487;SDS011;47351;53.326;-6.298;2022-08-26T04:34:43;0.30;;;0.30;;
61487;SDS011;47351;53.326;-6.298;2022-08-26T04:37:32;1.30;;;0.60;;
61487;SDS011;47351;53.326;-6.298;2022-08-26T04:40:21;0.50;;;0.50;;
61487;SDS011;47351;53.326;-6.298;2022-08-26T04:43:07;0.80;;;0.50;;
61487;SDS011;47351;53.326;-6.298;2022-08-26T04:46:00;1.00;;;0.40;;
61487;SDS011;47351;53.326;-6.298;2022-08-26T04:49:00;1.90;;;0.50;;
61487;SDS011;47351;53.326;-6.298;2022-08-26T04:51:44;2.10;;;0.70;;
61487;SDS011;47351;53.326;-6.298;2022-08-26T04:54:47;0.80;;;0.50;;
61487;SDS011;47351;53.326;-6.298;2022-08-26T04:57:39;1.10;;;0.60;;
61487;SDS011;47351;53.326;-6.298;2022-08-26T05:00:30;2.30;;;0.70;;
61487;SDS011;47351;53.326;-6.298;2022-08-26T05:03:28;1.00;;;0.80;;
61487;SDS011;47351;53.326;-6.298;2022-08-26T05:06:11;1.70;;;0.80;;
61487;SDS011;47351;53.326;-6.298;2022-08-26T05:09:01;2.80;;;0.80;;
61487;SDS011;47351;53.326;-6.298;2022-08-26T05:12:10;1.60;;;0.90;;
61487;SDS011;47351;53.326;-6.298;2022-08-26T05:14:42;1.50;;;0.80;;
61487;SDS011;47351;53.326;-6.298;2022-08-26T05:17:38;2.50;;;0.90;;
61487;SDS011;47351;53.326;-6.298;2022-08-26T05:20:11;2.30;;;0.90;;
61487;SDS011;47351;53.326;-6.298;2022-08-26T05:23:00;1.50;;;0.70;;
61487;SDS011;47351;53.326;-6.298;2022-08-26T05:25:51;2.60;;;0.80;;
61487;SDS011;47351;53.326;-6.298;2022-08-26T05:28:43;1.40;;;0.70;;
61487;SDS011;47351;53.326;-6.298;2022-08-26T05:31:36;3.40;;;1.00;;
61487;SDS011;47351;53.326;-6.298;2022-08-26T05:34:14;2.70;;;0.80;;
61487;SDS011;47351;53.326;-6.298;2022-08-26T05:37:13;1.60;;;0.90;;
61487;SDS011;47351;53.326;-6.298;2022-08-26T05:40:04;2.40;;;1.10;;
61487;SDS011;47351;53.326;-6.298;2022-08-26T05:43:08;1.50;;;0.80;;
61487;SDS011;47351;53.326;-6.298;2022-08-26T05:45:46;1.90;;;0.80;;
61487;SDS011;47351;53.326;-6.298;2022-08-26T05:48:33;1.10;;;0.80;;
61487;SDS011;47351;53.326;-6.298;2022-08-26T05:51:42;1.50;;;1.10;;
61487;SDS011;47351;53.326;-6.298;2022-08-26T05:54:38;3.30;;;1.60;;
61487;SDS011;47351;53.326;-6.298;2022-08-26T05:57:17;2.20;;;1.50;;
61487;SDS011;47351;53.326;-6.298;2022-08-26T06:00:23;2.00;;;1.10;;
61487;SDS011;47351;53.326;-6.298;2022-08-26T06:03:33;1.40;;;0.90;;
61487;SDS011;47351;53.326;-6.298;2022-08-26T06:06:19;1.60;;;0.90;;
61487;SDS011;47351;53.326;-6.298;2022-08-26T06:09:00;1.80;;;1.00;;
61487;SDS011;47351;53.326;-6.298;2022-08-26T06:11:54;1.40;;;0.80;;
61487;SDS011;47351;53.326;-6.298;2022-08-26T06:14:37;1.40;;;0.90;;
61487;SDS011;47351;53.326;-6.298;2022-08-26T06:17:31;2.30;;;0.80;;
61487;SDS011;47351;53.326;-6.298;2022-08-26T06:20:21;1.90;;;0.80;;
61487;SDS011;47351;53.326;-6.298;2022-08-26T06:23:16;0.80;;;0.70;;
61487;SDS011;47351;53.326;-6.298;2022-08-26T06:26:12;2.40;;;0.60;;
61487;SDS011;47351;53.326;-6.298;2022-08-26T06:31:51;1.60;;;0.80;;
61487;SDS011;47351;53.326;-6.298;2022-08-26T06:34:42;1.40;;;0.40;;
61487;SDS011;47351;53.326;-6.298;2022-08-26T06:37:32;0.60;;;0.60;;
61487;SDS011;47351;53.326;-6.298;2022-08-26T06:40:17;2.60;;;0.70;;
61487;SDS011;47351;53.326;-6.298;2022-08-26T06:43:01;1.60;;;0.90;;
61487;SDS011;47351;53.326;-6.298;2022-08-26T06:45:51;1.50;;;1.00;;
61487;SDS011;47351;53.326;-6.298;2022-08-26T06:48:42;1.60;;;1.00;;
61487;SDS011;47351;53.326;-6.298;2022-08-26T06:51:24;2.30;;;1.10;;
61487;SDS011;47351;53.326;-6.298;2022-08-26T06:54:36;1.90;;;0.90;;
61487;SDS011;47351;53.326;-6.298;2022-08-26T06:57:16;2.30;;;1.00;;
61487;SDS011;47351;53.326;-6.298;2022-08-26T07:00:08;0.70;;;0.70;;
61487;SDS011;47351;53.326;-6.298;2022-08-26T07:03:19;2.10;;;1.10;;
61487;SDS011;47351;53.326;-6.298;2022-08-26T07:06:08;3.90;;;1.70;;
61487;SDS011;47351;53.326;-6.298;2022-08-26T07:08:48;3.70;;;2.20;;
61487;SDS011;47351;53.326;-6.298;2022-08-26T07:11:39;4.10;;;2.00;;
61487;SDS011;47351;53.326;-6.298;2022-08-26T07:14:21;2.10;;;1.30;;
61487;SDS011;47351;53.326;-6.298;2022-08-26T07:17:11;2.00;;;1.40;;
61487;SDS011;47351;53.326;-6.298;2022-08-26T07:20:02;3.90;;;1.40;;
61487;SDS011;47351;53.326;-6.298;2022-08-26T07:22:54;1.70;;;1.10;;
61487;SDS011;47351;53.326;-6.298;2022-08-26T07:25:45;2.30;;;1.20;;
61487;SDS011;47351;53.326;-6.298;2022-08-26T07:28:34;2.50;;;1.40;;
61487;SDS011;47351;53.326;-6.298;2022-08-26T07:31:11;3.00;;;2.00;;
61487;SDS011;47351;53.326;-6.298;2022-08-26T07:34:00;5.00;;;2.40;;
61487;SDS011;47351;53.326;-6.298;2022-08-26T07:36:53;2.40;;;1.40;;
61487;SDS011;47351;53.326;-6.298;2022-08-26T07:39:25;2.50;;;1.60;;
61487;SDS011;47351;53.326;-6.298;2022-08-26T07:42:03;1.80;;;1.00;;
61487;SDS011;47351;53.326;-6.298;2022-08-26T07:44:54;1.80;;;1.10;;
61487;SDS011;47351;53.326;-6.298;2022-08-26T07:47:47;1.40;;;0.80;;
61487;SDS011;47351;53.326;-6.298;2022-08-26T07:50:47;1.00;;;0.80;;
61487;SDS011;47351;53.326;-6.298;2022-08-26T07:53:59;1.00;;;0.60;;
61487;SDS011;47351;53.326;-6.298;2022-08-26T07:56:42;0.50;;;0.50;;
61487;SDS011;47351;53.326;-6.298;2022-08-26T07:59:40;0.50;;;0.50;;
61487;SDS011;47351;53.326;-6.298;2022-08-26T08:02:14;2.10;;;0.70;;
61487;SDS011;47351;53.326;-6.298;2022-08-26T08:05:14;1.80;;;1.00;;
61487;SDS011;47351;53.326;-6.298;2022-08-26T08:07:48;1.40;;;0.60;;
61487;SDS011;47351;53.326;-6.298;2022-08-26T08:10:43;1.00;;;0.50;;
61487;SDS011;47351;53.326;-6.298;2022-08-26T08:13:40;1.20;;;0.50;;
61487;SDS011;47351;53.326;-6.298;2022-08-26T08:16:25;1.20;;;0.60;;
61487;SDS011;47351;53.326;-6.298;2022-08-26T08:19:07;2.80;;;0.70;;
61487;SDS011;47351;53.326;-6.298;2022-08-26T08:21:39;2.40;;;0.60;;
61487;SDS011;47351;53.326;-6.298;2022-08-26T08:24:13;0.70;;;0.50;;
61487;SDS011;47351;53.326;-6.298;2022-08-26T08:26:57;4.50;;;1.00;;
61487;SDS011;47351;53.326;-6.298;2022-08-26T08:29:47;1.80;;;0.70;;
61487;SDS011;47351;53.326;-6.298;2022-08-26T08:32:34;2.90;;;0.90;;
61487;SDS011;47351;53.326;-6.298;2022-08-26T08:35:25;2.80;;;0.80;;
61487;SDS011;47351;53.326;-6.298;2022-08-26T08:38:37;1.80;;;0.60;;
61487;SDS011;47351;53.326;-6.298;2022-08-26T08:41:33;3.40;;;0.70;;
61487;SDS011;47351;53.326;-6.298;2022-08-26T08:44:23;1.40;;;0.60;;
61487;SDS011;47351;53.326;-6.298;2022-08-26T08:47:13;2.70;;;0.70;;
61487;SDS011;47351;53.326;-6.298;2022-08-26T08:50:10;2.40;;;0.70;;
61487;SDS011;47351;53.326;-6.298;2022-08-26T08:56:03;2.70;;;0.70;;
61487;SDS011;47351;53.326;-6.298;2022-08-26T08:59:04;1.70;;;0.80;;
61487;SDS011;47351;53.326;-6.298;2022-08-26T09:01:58;2.00;;;0.70;;
61487;SDS011;47351;53.326;-6.298;2022-08-26T09:08:09;1.30;;;0.60;;
61487;SDS011;47351;53.326;-6.298;2022-08-26T09:10:48;1.70;;;0.60;;
61487;SDS011;47351;53.326;-6.298;2022-08-26T09:14:02;6.70;;;0.80;;
61487;SDS011;47351;53.326;-6.298;2022-08-26T09:16:39;1.00;;;0.60;;
61487;SDS011;47351;53.326;-6.298;2022-08-26T09:19:26;1.90;;;0.80;;
61487;SDS011;47351;53.326;-6.298;2022-08-26T09:22:27;2.20;;;0.80;;
61487;SDS011;47351;53.326;-6.298;2022-08-26T09:24:59;2.90;;;0.80;;
61487;SDS011;47351;53.326;-6.298;2022-08-26T09:27:41;1.70;;;0.80;;
61487;SDS011;47351;53.326;-6.298;2022-08-26T09:30:20;2.60;;;0.80;;
61487;SDS011;47351;53.326;-6.298;2022-08-26T09:32:57;1.60;;;0.60;;
61487;SDS011;47351;53.326;-6.298;2022-08-26T09:35:29;2.20;;;0.70;;
61487;SDS011;47351;53.326;-6.298;2022-08-26T09:38:22;5.10;;;0.90;;
61487;SDS011;47351;53.326;-6.298;2022-08-26T09:41:34;1.60;;;0.70;;
61487;SDS011;47351;53.326;-6.298;2022-08-26T09:44:24;3.00;;;0.90;;
61487;SDS011;47351;53.326;-6.298;2022-08-26T09:47:36;1.60;;;0.80;;
61487;SDS011;47351;53.326;-6.298;2022-08-26T09:50:30;1.50;;;0.60;;
61487;SDS011;47351;53.326;-6.298;2022-08-26T09:53:21;2.20;;;0.70;;
61487;SDS011;47351;53.326;-6.298;2022-08-26T09:56:12;2.90;;;0.80;;
61487;SDS011;47351;53.326;-6.298;2022-08-26T09:58:46;2.40;;;0.70;;
61487;SDS011;47351;53.326;-6.298;2022-08-26T10:01:40;1.40;;;0.70;;
61487;SDS011;47351;53.326;-6.298;2022-08-26T10:04:31;2.70;;;0.80;;
61487;SDS011;47351;53.326;-6.298;2022-08-26T10:10:09;0.90;;;0.70;;
61487;SDS011;47351;53.326;-6.298;2022-08-26T10:12:45;3.50;;;1.00;;
61487;SDS011;47351;53.326;-6.298;2022-08-26T10:15:21;2.90;;;1.00;;
61487;SDS011;47351;53.326;-6.298;2022-08-26T10:18:00;4.00;;;1.40;;
61487;SDS011;47351;53.326;-6.298;2022-08-26T10:20:37;3.00;;;1.20;;
61487;SDS011;47351;53.326;-6.298;2022-08-26T10:23:16;3.10;;;1.10;;
61487;SDS011;47351;53.326;-6.298;2022-08-26T10:26:11;2.80;;;1.00;;
61487;SDS011;47351;53.326;-6.298;2022-08-26T10:28:53;3.50;;;1.20;;
61487;SDS011;47351;53.326;-6.298;2022-08-26T10:31:32;2.00;;;0.90;;
61487;SDS011;47351;53.326;-6.298;2022-08-26T10:34:22;4.30;;;1.30;;
61487;SDS011;47351;53.326;-6.298;2022-08-26T10:37:04;0.80;;;0.80;;
61487;SDS011;47351;53.326;-6.298;2022-08-26T10:39:48;2.10;;;0.70;;
61487;SDS011;47351;53.326;-6.298;2022-08-26T10:42:39;0.60;;;0.60;;
61487;SDS011;47351;53.326;-6.298;2022-08-26T10:45:27;1.10;;;0.60;;
61487;SDS011;47351;53.326;-6.298;2022-08-26T10:48:15;2.70;;;0.80;;
61487;SDS011;47351;53.326;-6.298;2022-08-26T10:50:50;1.30;;;0.60;;
61487;SDS011;47351;53.326;-6.298;2022-08-26T10:53:29;1.20;;;0.60;;
61487;SDS011;47351;53.326;-6.298;2022-08-26T10:56:42;2.80;;;0.60;;
61487;SDS011;47351;53.326;-6.298;2022-08-26T10:59:26;2.00;;;0.60;;
61487;SDS011;47351;53.326;-6.298;2022-08-26T11:02:30;0.80;;;0.60;;
61487;SDS011;47351;53.326;-6.298;2022-08-26T11:05:07;2.90;;;0.80;;
61487;SDS011;47351;53.326;-6.298;2022-08-26T11:08:32;2.60;;;0.90;;
61487;SDS011;47351;53.326;-6.298;2022-08-26T11:14:33;1.40;;;0.70;;
61487;SDS011;47351;53.326;-6.298;2022-08-26T11:20:31;1.00;;;0.70;;
61487;SDS011;47351;53.326;-6.298;2022-08-26T11:23:38;3.20;;;0.80;;
61487;SDS011;47351;53.326;-6.298;2022-08-26T11:26:42;1.70;;;0.70;;
61487;SDS011;47351;53.326;-6.298;2022-08-26T11:32:51;1.20;;;0.70;;
61487;SDS011;47351;53.326;-6.298;2022-08-26T11:35:46;2.10;;;0.70;;
61487;SDS011;47351;53.326;-6.298;2022-08-26T11:38:24;2.20;;;0.70;;
61487;SDS011;47351;53.326;-6.298;2022-08-26T11:41:09;1.30;;;1.00;;
61487;SDS011;47351;53.326;-6.298;2022-08-26T11:46:23;1.60;;;0.80;;
61487;SDS011;47351;53.326;-6.298;2022-08-26T11:49:07;2.10;;;0.80;;
61487;SDS011;47351;53.326;-6.298;2022-08-26T11:51:51;1.00;;;0.60;;
61487;SDS011;47351;53.326;-6.298;2022-08-26T11:54:36;0.90;;;0.60;;
61487;SDS011;47351;53.326;-6.298;2022-08-26T11:57:13;1.10;;;0.50;;
61487;SDS011;47351;53.326;-6.298;2022-08-26T11:59:48;1.50;;;0.70;;
61487;SDS011;47351;53.326;-6.298;2022-08-26T12:02:46;1.30;;;0.70;;
61487;SDS011;47351;53.326;-6.298;2022-08-26T12:05:27;1.20;;;0.70;;
61487;SDS011;47351;53.326;-6.298;2022-08-26T12:08:06;2.00;;;0.70;;
61487;SDS011;47351;53.326;-6.298;2022-08-26T12:11:02;1.20;;;0.70;;
61487;SDS011;47351;53.326;-6.298;2022-08-26T12:13:34;1.20;;;0.70;;
61487;SDS011;47351;53.326;-6.298;2022-08-26T12:16:08;2.30;;;0.90;;
61487;SDS011;47351;53.326;-6.298;2022-08-26T12:18:39;1.10;;;0.70;;
61487;SDS011;47351;53.326;-6.298;2022-08-26T12:21:12;1.30;;;0.70;;
61487;SDS011;47351;53.326;-6.298;2022-08-26T12:23:55;0.80;;;0.80;;
61487;SDS011;47351;53.326;-6.298;2022-08-26T12:26:26;2.10;;;0.60;;
61487;SDS011;47351;53.326;-6.298;2022-08-26T12:29:02;1.00;;;0.60;;
61487;SDS011;47351;53.326;-6.298;2022-08-26T12:31:50;1.80;;;0.60;;
61487;SDS011;47351;53.326;-6.298;2022-08-26T12:34:34;3.30;;;0.70;;
61487;SDS011;47351;53.326;-6.298;2022-08-26T12:37:03;3.40;;;0.60;;
61487;SDS011;47351;53.326;-6.298;2022-08-26T12:42:20;2.50;;;0.70;;
61487;SDS011;47351;53.326;-6.298;2022-08-26T12:44:57;3.50;;;0.60;;
61487;SDS011;47351;53.326;-6.298;2022-08-26T12:47:38;0.90;;;0.60;;
61487;SDS011;47351;53.326;-6.298;2022-08-26T12:50:16;1.00;;;0.50;;
61487;SDS011;47351;53.326;-6.298;2022-08-26T12:52:58;1.80;;;0.60;;
61487;SDS011;47351;53.326;-6.298;2022-08-26T12:55:49;4.50;;;0.60;;
61487;SDS011;47351;53.326;-6.298;2022-08-26T12:58:26;2.60;;;0.70;;
61487;SDS011;47351;53.326;-6.298;2022-08-26T13:01:01;1.10;;;0.50;;
61487;SDS011;47351;53.326;-6.298;2022-08-26T13:07:17;1.40;;;0.60;;
61487;SDS011;47351;53.326;-6.298;2022-08-26T13:09:48;2.70;;;0.70;;
61487;SDS011;47351;53.326;-6.298;2022-08-26T13:12:26;3.40;;;0.90;;
61487;SDS011;47351;53.326;-6.298;2022-08-26T13:15:00;2.20;;;1.00;;
61487;SDS011;47351;53.326;-6.298;2022-08-26T13:17:35;3.10;;;0.80;;
61487;SDS011;47351;53.326;-6.298;2022-08-26T13:20:08;2.70;;;0.80;;
61487;SDS011;47351;53.326;-6.298;2022-08-26T13:22:37;2.60;;;0.60;;
61487;SDS011;47351;53.326;-6.298;2022-08-26T13:25:11;4.60;;;0.50;;
61487;SDS011;47351;53.326;-6.298;2022-08-26T13:27:40;2.60;;;0.70;;
61487;SDS011;47351;53.326;-6.298;2022-08-26T13:30:10;1.50;;;0.60;;
61487;SDS011;47351;53.326;-6.298;2022-08-26T13:32:40;1.10;;;0.60;;
61487;SDS011;47351;53.326;-6.298;2022-08-26T13:35:10;1.20;;;0.50;;
61487;SDS011;47351;53.326;-6.298;2022-08-26T13:37:47;2.70;;;1.10;;
61487;SDS011;47351;53.326;-6.298;2022-08-26T13:40:17;2.40;;;0.60;;
61487;SDS011;47351;53.326;-6.298;2022-08-26T13:42:46;2.00;;;0.70;;
61487;SDS011;47351;53.326;-6.298;2022-08-26T13:45:16;1.80;;;0.70;;
61487;SDS011;47351;53.326;-6.298;2022-08-26T13:47:48;2.40;;;0.70;;
61487;SDS011;47351;53.326;-6.298;2022-08-26T13:50:17;1.60;;;0.60;;
61487;SDS011;47351;53.326;-6.298;2022-08-26T13:52:49;3.00;;;0.80;;
61487;SDS011;47351;53.326;-6.298;2022-08-26T13:55:22;2.70;;;0.70;;
61487;SDS011;47351;53.326;-6.298;2022-08-26T13:58:01;0.90;;;0.50;;
61487;SDS011;47351;53.326;-6.298;2022-08-26T14:00:32;1.70;;;0.60;;
61487;SDS011;47351;53.326;-6.298;2022-08-26T14:03:08;1.10;;;0.60;;
61487;SDS011;47351;53.326;-6.298;2022-08-26T14:05:40;3.60;;;0.80;;
61487;SDS011;47351;53.326;-6.298;2022-08-26T14:08:14;2.30;;;0.80;;
61487;SDS011;47351;53.326;-6.298;2022-08-26T14:10:48;3.50;;;0.70;;
61487;SDS011;47351;53.326;-6.298;2022-08-26T14:13:17;1.60;;;0.60;;
61487;SDS011;47351;53.326;-6.298;2022-08-26T14:15:46;6.00;;;0.80;;
61487;SDS011;47351;53.326;-6.298;2022-08-26T14:18:16;2.40;;;0.70;;
61487;SDS011;47351;53.326;-6.298;2022-08-26T14:20:55;2.90;;;0.60;;
61487;SDS011;47351;53.326;-6.298;2022-08-26T14:23:31;2.00;;;0.60;;
61487;SDS011;47351;53.326;-6.298;2022-08-26T14:26:04;3.30;;;0.80;;
61487;SDS011;47351;53.326;-6.298;2022-08-26T14:28:34;3.50;;;0.80;;
61487;SDS011;47351;53.326;-6.298;2022-08-26T14:31:23;3.00;;;0.50;;
61487;SDS011;47351;53.326;-6.298;2022-08-26T14:33:53;2.40;;;0.60;;
61487;SDS011;47351;53.326;-6.298;2022-08-26T14:36:36;2.80;;;0.60;;
61487;SDS011;47351;53.326;-6.298;2022-08-26T14:39:24;4.80;;;0.70;;
61487;SDS011;47351;53.326;-6.298;2022-08-26T14:41:54;2.40;;;0.60;;
61487;SDS011;47351;53.326;-6.298;2022-08-26T14:44:24;1.60;;;0.60;;
61487;SDS011;47351;53.326;-6.298;2022-08-26T14:46:58;1.50;;;0.60;;
61487;SDS011;47351;53.326;-6.298;2022-08-26T14:49:28;3.00;;;0.80;;
61487;SDS011;47351;53.326;-6.298;2022-08-26T14:52:17;2.10;;;0.60;;
61487;SDS011;47351;53.326;-6.298;2022-08-26T14:54:51;6.60;;;0.70;;
61487;SDS011;47351;53.326;-6.298;2022-08-26T14:57:33;1.60;;;0.80;;
61487;SDS011;47351;53.326;-6.298;2022-08-26T15:00:16;5.30;;;0.80;;
61487;SDS011;47351;53.326;-6.298;2022-08-26T15:03:01;3.50;;;0.60;;
61487;SDS011;47351;53.326;-6.298;2022-08-26T15:05:30;2.60;;;0.60;;
61487;SDS011;47351;53.326;-6.298;2022-08-26T15:08:11;4.40;;;0.80;;
61487;SDS011;47351;53.326;-6.298;2022-08-26T15:11:09;5.30;;;0.90;;
61487;SDS011;47351;53.326;-6.298;2022-08-26T15:13:57;3.20;;;0.70;;
61487;SDS011;47351;53.326;-6.298;2022-08-26T15:16:46;2.90;;;0.70;;
61487;SDS011;47351;53.326;-6.298;2022-08-26T15:19:57;3.00;;;0.80;;
61487;SDS011;47351;53.326;-6.298;2022-08-26T15:22:31;3.40;;;0.70;;
61487;SDS011;47351;53.326;-6.298;2022-08-26T15:25:06;5.60;;;0.90;;
61487;SDS011;47351;53.326;-6.298;2022-08-26T15:27:45;4.10;;;0.90;;
61487;SDS011;47351;53.326;-6.298;2022-08-26T15:30:14;2.60;;;0.80;;
61487;SDS011;47351;53.326;-6.298;2022-08-26T15:35:57;3.30;;;0.80;;
61487;SDS011;47351;53.326;-6.298;2022-08-26T15:38:39;5.30;;;0.90;;
61487;SDS011;47351;53.326;-6.298;2022-08-26T15:41:37;2.70;;;0.80;;
61487;SDS011;47351;53.326;-6.298;2022-08-26T15:44:11;3.40;;;0.80;;
61487;SDS011;47351;53.326;-6.298;2022-08-26T15:47:11;2.60;;;0.80;;
61487;SDS011;47351;53.326;-6.298;2022-08-26T15:49:49;2.40;;;0.70;;
61487;SDS011;47351;53.326;-6.298;2022-08-26T15:52:21;4.10;;;0.90;;
61487;SDS011;47351;53.326;-6.298;2022-08-26T15:55:37;5.90;;;1.00;;
61487;SDS011;47351;53.326;-6.298;2022-08-26T15:58:06;3.40;;;0.90;;
61487;SDS011;47351;53.326;-6.298;2022-08-26T16:00:53;5.50;;;1.00;;
61487;SDS011;47351;53.326;-6.298;2022-08-26T16:03:22;2.60;;;0.70;;
61487;SDS011;47351;53.326;-6.298;2022-08-26T16:05:51;4.60;;;0.80;;
61487;SDS011;47351;53.326;-6.298;2022-08-26T16:08:20;2.90;;;0.80;;
61487;SDS011;47351;53.326;-6.298;2022-08-26T16:11:12;2.50;;;0.90;;
61487;SDS011;47351;53.326;-6.298;2022-08-26T16:14:01;3.70;;;0.90;;
61487;SDS011;47351;53.326;-6.298;2022-08-26T16:16:39;3.00;;;0.80;;
61487;SDS011;47351;53.326;-6.298;2022-08-26T16:19:12;3.40;;;0.90;;
61487;SDS011;47351;53.326;-6.298;2022-08-26T16:22:04;4.40;;;1.00;;
61487;SDS011;47351;53.326;-6.298;2022-08-26T16:24:55;5.00;;;1.10;;
61487;SDS011;47351;53.326;-6.298;2022-08-26T16:27:25;5.70;;;1.20;;
61487;SDS011;47351;53.326;-6.298;2022-08-26T16:29:53;5.10;;;1.20;;
61487;SDS011;47351;53.326;-6.298;2022-08-26T16:32:22;2.70;;;0.80;;
61487;SDS011;47351;53.326;-6.298;2022-08-26T16:34:58;4.90;;;1.00;;
61487;SDS011;47351;53.326;-6.298;2022-08-26T16:37:26;4.70;;;1.00;;
61487;SDS011;47351;53.326;-6.298;2022-08-26T16:39:55;4.70;;;1.00;;
61487;SDS011;47351;53.326;-6.298;2022-08-26T16:42:27;3.60;;;1.00;;
61487;SDS011;47351;53.326;-6.298;2022-08-26T16:44:58;3.30;;;0.90;;
61487;SDS011;47351;53.326;-6.298;2022-08-26T16:47:27;6.70;;;1.30;;
61487;SDS011;47351;53.326;-6.298;2022-08-26T16:49:59;5.30;;;1.00;;
61487;SDS011;47351;53.326;-6.298;2022-08-26T16:52:28;5.40;;;1.10;;
61487;SDS011;47351;53.326;-6.298;2022-08-26T16:55:23;4.60;;;1.10;;
61487;SDS011;47351;53.326;-6.298;2022-08-26T16:57:52;4.30;;;1.00;;